»·PEaware :: N445XS KSNA-KSBD

N445XS :: KSNA-KSBD

FLIGHT INFORMATION

Flight Status: Arrived
Operator: Privately registered:
United States
More flights under this callsign
Pilot: Caleb H. (26682)
Aircraft: BEECH AIRCRAFT BARON
(BE58)
More flights by this aircraft type
Origin: KSNA John Wayne-Orange Co
United States
Destination: KSBD San Bernardino Intl
United States
More flights between these airports :: More routes between these airports
Route: +SLI V8 PDZ
File this flight plan on PilotEdge
Remarks: I4 Rating
Altitude:
(Current/Filed)
5,000ft
Speed:
(Current/Filed)
160kts
Departed: 11-Feb-20 06:12 PM
Arrived: 11-Feb-20 06:42 PM
Distance/Time
Traveled:
40nm/0:30
Distance/Time
To Go:
Arrived

Flight Plot

Page will automatically refresh every two minutes.


Map Options




Map Legend


Flown Route
Filed Route
Departure Airport
Arrival Airport
Navaid (VOR, NDB)
Fix

Horizontal Profiles

Position Reports

Time Latitude Longitude Heading Altitude Ground
Speed
11-Feb-20 17:58 33.670926 -117.868103 36 60ft 0kts
11-Feb-20 17:59 33.670926 -117.868103 36 60ft 0kts
11-Feb-20 18:00 33.670926 -117.868103 36 60ft 0kts
11-Feb-20 18:01 33.670926 -117.868103 36 60ft 0kts
11-Feb-20 18:02 33.670926 -117.868103 36 60ft 0kts
11-Feb-20 18:03 33.670926 -117.868103 36 60ft 0kts
11-Feb-20 18:04 33.670932 -117.868097 36 60ft 0kts
11-Feb-20 18:05 33.671546 -117.868562 32 60ft 3kts
11-Feb-20 18:06 33.672943 -117.867480 50 60ft 9kts
11-Feb-20 18:07 33.674963 -117.866545 27 60ft 13kts
11-Feb-20 18:08 33.677992 -117.864632 26 60ft 11kts
11-Feb-20 18:09 33.679977 -117.863663 297 60ft 0kts
11-Feb-20 18:10 33.679978 -117.863665 296 60ft 0kts
11-Feb-20 18:11 33.672612 -117.868710 207 129ft 109kts
11-Feb-20 18:12 33.647851 -117.899945 231 1165ft 142kts
11-Feb-20 18:13 33.624953 -117.938975 263 2182ft 142kts
11-Feb-20 18:14 33.649474 -117.972645 321 3295ft 141kts
11-Feb-20 18:15 33.683590 -117.997452 323 4168ft 143kts
11-Feb-20 18:16 33.720927 -118.016373 337 4816ft 153kts
11-Feb-20 18:17 33.759522 -118.036297 323 4896ft 138kts
11-Feb-20 18:18 33.781654 -118.016574 93 4940ft 140kts
11-Feb-20 18:19 33.795747 -117.977793 45 4935ft 126kts
11-Feb-20 18:20 33.811394 -117.939824 61 4932ft 127kts
11-Feb-20 18:21 33.823759 -117.900130 64 4933ft 126kts
11-Feb-20 18:22 33.837117 -117.852177 68 4903ft 166kts
11-Feb-20 18:23 33.850343 -117.801217 68 4931ft 156kts
11-Feb-20 18:24 33.862914 -117.751901 70 4887ft 149kts
11-Feb-20 18:25 33.874518 -117.705984 70 4891ft 139kts
11-Feb-20 18:26 33.885659 -117.661714 71 4894ft 137kts
11-Feb-20 18:27 33.896712 -117.617655 72 4913ft 139kts
11-Feb-20 18:28 33.909036 -117.568229 72 4922ft 166kts
11-Feb-20 18:29 33.922190 -117.513798 73 4889ft 170kts
11-Feb-20 18:30 33.935242 -117.459205 57 4869ft 171kts
11-Feb-20 18:31 33.963476 -117.414773 49 4907ft 166kts
11-Feb-20 18:32 33.989387 -117.374134 50 4898ft 144kts
11-Feb-20 18:33 34.013055 -117.336519 50 4819ft 144kts
11-Feb-20 18:34 34.037785 -117.296632 49 4102ft 121kts
11-Feb-20 18:35 34.059133 -117.262322 58 3585ft 135kts
11-Feb-20 18:36 34.071680 -117.219990 67 3218ft 125kts
11-Feb-20 18:37 34.078815 -117.180868 75 2615ft 115kts
11-Feb-20 18:38 34.097381 -117.166027 310 2445ft 103kts
11-Feb-20 18:39 34.105831 -117.197939 274 1641ft 100kts
11-Feb-20 18:40 34.097776 -117.226514 252 1139ft 47kts
11-Feb-20 18:41 34.095592 -117.235881 323 1114ft 12kts
11-Feb-20 18:42 34.098106 -117.237634 330 1111ft 13kts
11-Feb-20 18:43 34.101940 -117.240263 330 1109ft 15kts
11-Feb-20 18:44 34.104253 -117.243642 252 1102ft 15kts
11-Feb-20 18:45 34.104198 -117.245737 13 1098ft 0kts
11-Feb-20 18:46 34.104198 -117.245737 13 1098ft 0kts
11-Feb-20 18:47 34.104198 -117.245737 13 1098ft 0kts
11-Feb-20 18:48 34.104198 -117.245737 13 1098ft 0kts
11-Feb-20 18:49 34.104198 -117.245737 13 1098ft 0kts
11-Feb-20 18:50 34.104198 -117.245737 13 1098ft 0kts
11-Feb-20 18:51 34.104198 -117.245737 13 1098ft 0kts
11-Feb-20 18:52 34.104198 -117.245737 13 1098ft 0kts
11-Feb-20 18:53 34.104198 -117.245737 13 1098ft 0kts
11-Feb-20 18:54 34.104198 -117.245737 13 1098ft 0kts
11-Feb-20 18:55 34.104198 -117.245737 13 1098ft 0kts

Navigation Log

Ident Type
Flight plan parsing failed, navigation log unavailable